Time;durP1;ratioP1;P1;durP2;ratioP2;P2;SDS_P1;SDS_P2;PMS_P1;PMS_P2;Temp;Humidity;BMP_temperature;BMP_pressure;BME280_temperature;BME280_humidity;BME280_pressure;Samples;Min_cycle;Max_cycle;Signal;HPM_P1;HPM_P2
2023/06/14 00:00:40;;;;;;;;;;;19.40;67.20;;;;;;5110275;28;19907;-77
2023/06/14 00:03:08;;;;;;;;;;;19.40;67.30;;;;;;5110195;28;20316;-77
2023/06/14 00:05:38;;;;;;;;;;;19.40;67.20;;;;;;5110388;28;19919;-77
2023/06/14 00:08:07;;;;;;;;;;;19.40;67.20;;;;;;5109030;28;19936;-77
2023/06/14 00:10:35;;;;;;;;;;;19.40;67.20;;;;;;5108901;28;19912;-77
2023/06/14 00:13:01;;;;;;;;;;;19.40;67.20;;;;;;5110043;28;20056;-77
2023/06/14 00:15:26;;;;;;;;;;;19.40;67.10;;;;;;5110236;28;19976;-77
2023/06/14 00:17:52;;;;;;;;;;;19.40;67.10;;;;;;5110185;28;19912;-77
2023/06/14 00:20:18;;;;;;;;;;;19.40;67.00;;;;;;5110055;28;19912;-77
2023/06/14 00:22:45;;;;;;;;;;;19.40;67.00;;;;;;5109997;28;19947;-77
2023/06/14 00:25:10;;;;;;;;;;;19.40;66.90;;;;;;5110021;28;19912;-77
2023/06/14 00:27:36;;;;;;;;;;;19.40;67.30;;;;;;5110027;28;19916;-77
2023/06/14 00:30:02;;;;;;;;;;;19.40;66.90;;;;;;5109963;28;19912;-77
2023/06/14 00:32:27;;;;;;;;;;;19.30;66.80;;;;;;5108241;28;19916;-77
2023/06/14 00:34:53;;;;;;;;;;;19.20;66.90;;;;;;5109675;28;19916;-77
2023/06/14 00:37:18;;;;;;;;;;;19.10;67.00;;;;;;5108422;28;19915;-77
2023/06/14 00:39:44;;;;;;;;;;;19.00;67.10;;;;;;5109737;28;20432;-77
2023/06/14 00:42:10;;;;;;;;;;;18.90;67.20;;;;;;5109612;28;19946;-77
2023/06/14 00:44:35;;;;;;;;;;;18.80;67.30;;;;;;5109752;28;19916;-77
2023/06/14 00:47:01;;;;;;;;;;;18.80;67.40;;;;;;5108281;28;20343;-77
2023/06/14 00:49:28;;;;;;;;;;;18.70;67.40;;;;;;5109654;28;20333;-77
2023/06/14 00:51:54;;;;;;;;;;;18.70;67.40;;;;;;5108058;28;20002;-77
2023/06/14 00:54:19;;;;;;;;;;;18.60;67.40;;;;;;5109851;28;20006;-77
2023/06/14 00:56:45;;;;;;;;;;;18.60;67.40;;;;;;5109321;28;19927;-77
2023/06/14 00:59:11;;;;;;;;;;;18.50;67.50;;;;;;5109374;28;19919;-77
2023/06/14 01:01:36;;;;;;;;;;;18.50;67.50;;;;;;5107898;28;20002;-77
2023/06/14 01:04:03;;;;;;;;;;;18.50;67.40;;;;;;5109411;28;19919;-77
2023/06/14 01:06:51;;;;;;;;;;;18.60;67.40;;;;;;5109232;28;19919;-77
2023/06/14 01:09:35;;;;;;;;;;;18.50;67.30;;;;;;5088204;28;19912;-77
2023/06/14 01:12:21;;;;;;;;;;;18.40;67.40;;;;;;5107631;28;20381;-77
2023/06/14 01:14:48;;;;;;;;;;;18.40;67.50;;;;;;5108587;28;20170;-77
2023/06/14 01:17:16;;;;;;;;;;;18.40;67.50;;;;;;5109157;28;19915;-77
2023/06/14 01:19:44;;;;;;;;;;;18.50;67.40;;;;;;5109008;28;19908;-77
2023/06/14 01:22:10;;;;;;;;;;;18.50;67.40;;;;;;5108931;28;19998;-77
2023/06/14 01:24:36;;;;;;;;;;;18.50;67.30;;;;;;5108883;28;19937;-77
2023/06/14 01:27:02;;;;;;;;;;;18.50;67.20;;;;;;5108884;28;19912;-77
2023/06/14 01:29:32;;;;;;;;;;;18.50;67.20;;;;;;5108834;28;20264;-77
2023/06/14 01:31:59;;;;;;;;;;;18.50;67.30;;;;;;5108544;28;19912;-77
2023/06/14 01:34:25;;;;;;;;;;;18.40;67.30;;;;;;5108788;28;19915;-77
2023/06/14 01:36:51;;;;;;;;;;;18.30;67.30;;;;;;5108717;28;19912;-77
2023/06/14 01:39:17;;;;;;;;;;;18.30;67.40;;;;;;5108715;28;19915;-77
2023/06/14 01:41:44;;;;;;;;;;;18.20;67.40;;;;;;5108569;28;20296;-74
2023/06/14 01:44:10;;;;;;;;;;;18.20;67.40;;;;;;5108548;28;19951;-77
2023/06/14 01:46:36;;;;;;;;;;;18.30;67.40;;;;;;5108546;28;19919;-77
2023/06/14 01:49:02;;;;;;;;;;;18.20;67.30;;;;;;5108468;28;19949;-77
2023/06/14 01:51:28;;;;;;;;;;;18.20;67.30;;;;;;5108431;28;19952;-77
2023/06/14 01:53:53;;;;;;;;;;;18.20;67.30;;;;;;5107194;28;19924;-76
2023/06/14 01:56:19;;;;;;;;;;;18.20;67.30;;;;;;5108549;28;19988;-77
2023/06/14 01:58:45;;;;;;;;;;;18.30;67.30;;;;;;5108374;28;19920;-77
2023/06/14 02:01:12;;;;;;;;;;;18.30;67.30;;;;;;5108861;28;19912;-77
2023/06/14 02:03:38;;;;;;;;;;;18.30;67.30;;;;;;5108184;28;19974;-77
2023/06/14 02:06:04;;;;;;;;;;;18.30;67.30;;;;;;5108403;28;19916;-77
2023/06/14 02:08:29;;;;;;;;;;;18.30;67.20;;;;;;5108564;28;20443;-77
2023/06/14 02:10:55;;;;;;;;;;;18.30;67.20;;;;;;5108352;28;19912;-77
2023/06/14 02:13:21;;;;;;;;;;;18.30;67.30;;;;;;5108166;28;19916;-77
2023/06/14 02:15:48;;;;;;;;;;;18.30;67.50;;;;;;5108239;28;20387;-77
2023/06/14 02:18:13;;;;;;;;;;;18.30;67.20;;;;;;5108189;28;19911;-77
2023/06/14 02:20:39;;;;;;;;;;;18.30;67.20;;;;;;5110179;28;20388;-77
2023/06/14 02:23:07;;;;;;;;;;;18.40;67.20;;;;;;5111285;28;20311;-77
2023/06/14 02:25:33;;;;;;;;;;;18.40;67.10;;;;;;5111101;28;19916;-77
2023/06/14 02:27:58;;;;;;;;;;;18.40;67.00;;;;;;5112349;28;19934;-77
2023/06/14 02:30:24;;;;;;;;;;;18.40;67.00;;;;;;5112272;28;19963;-77
2023/06/14 02:32:51;;;;;;;;;;;18.40;67.10;;;;;;5112160;28;20331;-77
2023/06/14 02:35:16;;;;;;;;;;;18.40;67.10;;;;;;5112230;28;20387;-77
2023/06/14 02:37:42;;;;;;;;;;;18.40;67.10;;;;;;5112118;28;19924;-77
2023/06/14 02:40:08;;;;;;;;;;;18.40;67.10;;;;;;5112139;28;20344;-77
2023/06/14 02:42:34;;;;;;;;;;;18.50;67.10;;;;;;5111992;28;20002;-77
2023/06/14 02:45:00;;;;;;;;;;;18.50;67.10;;;;;;5112109;28;19947;-77
2023/06/14 02:47:25;;;;;;;;;;;18.50;67.10;;;;;;5112112;28;19957;-77
2023/06/14 02:49:51;;;;;;;;;;;18.50;67.10;;;;;;5110682;28;19912;-77
2023/06/14 02:52:17;;;;;;;;;;;18.50;67.10;;;;;;5111640;28;20284;-76
2023/06/14 02:54:42;;;;;;;;;;;18.60;67.10;;;;;;5111729;28;20004;-77
2023/06/14 02:57:08;;;;;;;;;;;18.60;67.10;;;;;;5111723;28;19912;-77
2023/06/14 02:59:35;;;;;;;;;;;18.60;67.20;;;;;;5111773;28;19928;-77
2023/06/14 03:02:00;;;;;;;;;;;18.50;67.30;;;;;;5111384;28;20074;-77
2023/06/14 03:04:26;;;;;;;;;;;18.60;67.40;;;;;;5111625;28;20405;-77
2023/06/14 03:06:53;;;;;;;;;;;18.60;67.50;;;;;;5111602;27;20448;-77
2023/06/14 03:09:19;;;;;;;;;;;18.60;67.50;;;;;;5111478;28;19908;-77
2023/06/14 03:11:45;;;;;;;;;;;18.70;67.60;;;;;;5110230;28;20294;-77
2023/06/14 03:14:11;;;;;;;;;;;18.70;67.60;;;;;;5110128;28;20392;-77
2023/06/14 03:16:37;;;;;;;;;;;18.70;67.60;;;;;;5110167;28;19916;-77
2023/06/14 03:19:02;;;;;;;;;;;18.80;67.50;;;;;;5111296;28;19915;-77
2023/06/14 03:21:28;;;;;;;;;;;18.90;67.60;;;;;;5110007;28;20319;-77
2023/06/14 03:23:54;;;;;;;;;;;18.90;67.60;;;;;;5111355;28;19968;-77
2023/06/14 03:26:20;;;;;;;;;;;19.00;67.60;;;;;;5109978;28;19935;-77
2023/06/14 03:28:46;;;;;;;;;;;19.00;67.60;;;;;;5111193;28;20377;-77
2023/06/14 03:31:16;;;;;;;;;;;19.10;67.60;;;;;;5110690;28;19911;-74
2023/06/14 03:33:41;;;;;;;;;;;19.20;67.60;;;;;;5110566;28;19971;-74
2023/06/14 03:36:07;;;;;;;;;;;19.20;67.60;;;;;;5111011;28;20327;-74
2023/06/14 03:38:32;;;;;;;;;;;19.20;67.60;;;;;;5110943;28;20433;-75
2023/06/14 03:40:58;;;;;;;;;;;19.30;67.60;;;;;;5110827;28;20283;-74
2023/06/14 03:43:24;;;;;;;;;;;19.30;67.50;;;;;;5109624;28;19912;-74
2023/06/14 03:45:50;;;;;;;;;;;19.30;67.50;;;;;;5110846;28;19912;-74
2023/06/14 03:48:16;;;;;;;;;;;19.40;67.50;;;;;;5110825;28;19908;-75
2023/06/14 03:50:42;;;;;;;;;;;19.40;67.50;;;;;;5110967;28;19919;-77
2023/06/14 03:53:08;;;;;;;;;;;19.40;67.50;;;;;;5110498;28;19979;-77
2023/06/14 03:55:34;;;;;;;;;;;19.50;67.50;;;;;;5109303;28;19912;-77
2023/06/14 03:58:00;;;;;;;;;;;19.60;67.60;;;;;;5110328;27;20268;-77
2023/06/14 04:00:26;;;;;;;;;;;19.60;67.50;;;;;;5110492;28;20044;-77
2023/06/14 04:02:52;;;;;;;;;;;19.80;67.50;;;;;;5110033;28;20368;-77
2023/06/14 04:05:19;;;;;;;;;;;19.90;67.50;;;;;;5108719;28;19919;-77
2023/06/14 04:07:45;;;;;;;;;;;19.90;67.40;;;;;;5109971;28;20451;-77
2023/06/14 04:10:14;;;;;;;;;;;20.00;67.40;;;;;;5110018;28;19994;-77
2023/06/14 04:12:39;;;;;;;;;;;20.10;67.40;;;;;;5109660;28;19915;-77
2023/06/14 04:15:06;;;;;;;;;;;20.30;67.40;;;;;;5109720;28;20286;-77
2023/06/14 04:17:32;;;;;;;;;;;20.30;67.40;;;;;;5108482;28;19954;-77
2023/06/14 04:19:59;;;;;;;;;;;20.50;67.30;;;;;;5108455;28;20290;-77
2023/06/14 04:22:28;;;;;;;;;;;20.60;67.30;;;;;;5109488;28;19916;-77
2023/06/14 04:24:56;;;;;;;;;;;20.70;67.30;;;;;;5109521;28;19947;-77
2023/06/14 04:27:24;;;;;;;;;;;20.70;67.30;;;;;;5109659;28;20418;-77
2023/06/14 04:29:56;;;;;;;;;;;20.80;67.30;;;;;;5109864;28;19922;-77
2023/06/14 04:32:33;;;;;;;;;;;20.80;67.30;;;;;;5109793;28;19916;-77
2023/06/14 04:35:02;;;;;;;;;;;20.90;67.30;;;;;;5110113;28;20022;-77
2023/06/14 04:37:29;;;;;;;;;;;21.00;67.30;;;;;;5108427;28;19915;-77
2023/06/14 04:39:55;;;;;;;;;;;21.10;67.30;;;;;;5109691;28;19912;-77
2023/06/14 04:42:24;;;;;;;;;;;21.10;67.20;;;;;;5109665;28;19915;-77
2023/06/14 04:44:51;;;;;;;;;;;21.10;67.20;;;;;;5108540;28;20002;-77
2023/06/14 04:47:17;;;;;;;;;;;21.20;67.30;;;;;;5109451;28;19927;-77
2023/06/14 04:49:42;;;;;;;;;;;21.20;67.30;;;;;;5109524;27;19980;-77
2023/06/14 04:52:10;;;;;;;;;;;21.30;67.30;;;;;;5109413;28;20459;-77
2023/06/14 04:54:37;;;;;;;;;;;21.40;67.20;;;;;;5109291;28;19957;-77
2023/06/14 04:57:03;;;;;;;;;;;21.50;67.10;;;;;;5109393;28;19908;-77
2023/06/14 04:59:33;;;;;;;;;;;21.60;67.00;;;;;;5109108;28;20398;-77
2023/06/14 05:01:59;;;;;;;;;;;21.60;67.00;;;;;;5109111;28;20024;-78
2023/06/14 05:04:26;;;;;;;;;;;21.60;67.10;;;;;;5109358;28;19911;-77
2023/06/14 05:06:54;;;;;;;;;;;21.60;67.20;;;;;;5109176;28;19914;-77
2023/06/14 05:09:20;;;;;;;;;;;21.70;67.20;;;;;;5109225;28;19919;-77
2023/06/14 05:11:45;;;;;;;;;;;21.80;67.20;;;;;;5109322;28;20283;-77
2023/06/14 05:14:11;;;;;;;;;;;21.90;67.10;;;;;;5109250;28;20293;-77
2023/06/14 05:16:37;;;;;;;;;;;22.00;67.10;;;;;;5109015;28;20290;-77
2023/06/14 05:19:04;;;;;;;;;;;22.00;67.00;;;;;;5108947;28;19908;-77
2023/06/14 05:21:30;;;;;;;;;;;22.00;67.00;;;;;;5108831;28;19961;-77
2023/06/14 05:23:56;;;;;;;;;;;22.00;67.10;;;;;;5108846;28;19916;-77
2023/06/14 05:26:23;;;;;;;;;;;21.90;67.10;;;;;;5108725;28;19908;-77
2023/06/14 05:28:50;;;;;;;;;;;22.00;67.10;;;;;;5108671;28;19947;-77
2023/06/14 05:31:15;;;;;;;;;;;21.90;67.10;;;;;;5108219;28;20257;-76
2023/06/14 05:33:41;;;;;;;;;;;21.90;67.10;;;;;;5108995;28;19923;-77
2023/06/14 05:36:06;;;;;;;;;;;21.80;67.00;;;;;;5108684;28;19911;-77
2023/06/14 05:38:32;;;;;;;;;;;21.90;67.00;;;;;;5108656;28;19957;-76
2023/06/14 05:40:57;;;;;;;;;;;21.80;66.90;;;;;;5108574;28;20007;-77
2023/06/14 05:43:23;;;;;;;;;;;21.70;67.00;;;;;;5108782;28;20102;-76
2023/06/14 05:45:49;;;;;;;;;;;21.70;67.20;;;;;;5108681;28;20063;-77
2023/06/14 05:48:14;;;;;;;;;;;22.00;67.20;;;;;;5108572;28;19923;-76
2023/06/14 05:50:40;;;;;;;;;;;22.50;66.90;;;;;;5108473;28;19908;-77
2023/06/14 05:53:05;;;;;;;;;;;22.80;66.20;;;;;;5106799;28;20019;-77
2023/06/14 05:55:31;;;;;;;;;;;22.80;66.10;;;;;;5107958;28;19908;-76
2023/06/14 05:57:57;;;;;;;;;;;22.60;66.30;;;;;;5108031;28;20328;-76
2023/06/14 06:00:22;;;;;;;;;;;22.60;66.80;;;;;;5108344;28;20027;-76
2023/06/14 06:02:48;;;;;;;;;;;23.20;66.80;;;;;;5107881;28;19931;-77
2023/06/14 06:05:15;;;;;;;;;;;24.00;66.30;;;;;;5108192;28;20359;-77
2023/06/14 06:07:41;;;;;;;;;;;24.80;65.80;;;;;;5106794;28;20500;-77
2023/06/14 06:10:07;;;;;;;;;;;25.40;65.30;;;;;;5107923;28;19995;-77
2023/06/14 06:12:33;;;;;;;;;;;26.00;65.00;;;;;;5108001;28;20018;-77
2023/06/14 06:14:59;;;;;;;;;;;26.30;64.90;;;;;;5108245;28;19916;-76
2023/06/14 06:17:25;;;;;;;;;;;26.70;64.80;;;;;;5108060;28;19911;-77
2023/06/14 06:19:50;;;;;;;;;;;26.90;64.80;;;;;;5108132;28;20361;-76
2023/06/14 06:22:16;;;;;;;;;;;27.10;64.90;;;;;;5107622;28;19962;-76
2023/06/14 06:24:42;;;;;;;;;;;27.40;65.00;;;;;;5107929;28;19955;-76
2023/06/14 06:27:08;;;;;;;;;;;27.70;65.00;;;;;;5106513;28;19966;-77
2023/06/14 06:29:34;;;;;;;;;;;28.20;65.00;;;;;;5107598;28;19920;-76
2023/06/14 06:32:00;;;;;;;;;;;28.40;64.80;;;;;;5107718;28;19961;-77
2023/06/14 06:34:26;;;;;;;;;;;28.90;64.70;;;;;;5107719;28;20309;-77
2023/06/14 06:36:51;;;;;;;;;;;29.20;64.50;;;;;;5107843;28;19936;-77
2023/06/14 06:39:17;;;;;;;;;;;29.50;64.60;;;;;;5107506;28;19960;-77
2023/06/14 06:41:42;;;;;;;;;;;29.70;64.40;;;;;;5108080;28;19918;-76
2023/06/14 06:44:10;;;;;;;;;;;30.00;64.50;;;;;;5109304;28;19911;-76
2023/06/14 06:46:39;;;;;;;;;;;30.00;64.50;;;;;;5108030;28;19908;-77
2023/06/14 06:49:06;;;;;;;;;;;30.10;64.70;;;;;;5107638;28;19912;-76
2023/06/14 06:51:31;;;;;;;;;;;30.20;64.80;;;;;;5107339;28;20304;-77
2023/06/14 06:53:57;;;;;;;;;;;30.50;65.00;;;;;;5106134;28;19912;-77
2023/06/14 06:56:24;;;;;;;;;;;30.60;64.70;;;;;;5106140;28;19912;-77
2023/06/14 06:58:52;;;;;;;;;;;30.60;64.70;;;;;;5107294;28;19916;-76
2023/06/14 07:01:19;;;;;;;;;;;30.20;64.50;;;;;;5105584;28;19912;-76
2023/06/14 07:03:45;;;;;;;;;;;29.70;65.00;;;;;;5107277;28;19980;-73
2023/06/14 07:06:10;;;;;;;;;;;29.60;65.40;;;;;;5107386;28;19915;-73
2023/06/14 07:08:38;;;;;;;;;;;29.50;65.50;;;;;;5110519;28;20313;-73
2023/06/14 07:11:04;;;;;;;;;;;29.30;65.20;;;;;;5111342;28;19915;-73
2023/06/14 07:13:30;;;;;;;;;;;28.60;65.30;;;;;;5111060;28;20404;-73
2023/06/14 07:15:58;;;;;;;;;;;28.10;66.00;;;;;;5111034;28;19916;-74
2023/06/14 07:18:24;;;;;;;;;;;28.10;66.40;;;;;;5109172;28;19908;-73
2023/06/14 07:20:50;;;;;;;;;;;28.20;66.60;;;;;;5110703;28;20018;-73
2023/06/14 07:23:15;;;;;;;;;;;28.90;66.60;;;;;;5110644;28;19912;-73
2023/06/14 07:25:41;;;;;;;;;;;29.70;66.30;;;;;;5110526;28;19934;-73
2023/06/14 07:28:07;;;;;;;;;;;30.10;66.00;;;;;;5110462;28;19965;-73
2023/06/14 07:30:32;;;;;;;;;;;30.40;66.10;;;;;;5110909;28;19947;-73
2023/06/14 07:32:58;;;;;;;;;;;31.00;66.20;;;;;;5110105;28;19958;-73
2023/06/14 07:35:23;;;;;;;;;;;31.40;65.90;;;;;;5110391;28;19912;-73
2023/06/14 07:37:49;;;;;;;;;;;32.10;65.60;;;;;;5109804;28;19915;-73
2023/06/14 07:40:15;;;;;;;;;;;32.50;65.30;;;;;;5109992;28;19912;-73
2023/06/14 07:42:41;;;;;;;;;;;32.70;65.20;;;;;;5110141;28;20410;-73
2023/06/14 07:45:07;;;;;;;;;;;32.90;65.50;;;;;;5110377;28;19908;-73
2023/06/14 07:47:33;;;;;;;;;;;33.20;65.40;;;;;;5110216;28;19919;-73
2023/06/14 07:49:58;;;;;;;;;;;33.40;65.60;;;;;;5109891;28;20388;-73
2023/06/14 07:52:24;;;;;;;;;;;33.70;65.60;;;;;;5109005;28;20008;-71
2023/06/14 07:54:50;;;;;;;;;;;33.80;65.60;;;;;;5109962;28;19912;-71
2023/06/14 07:57:15;;;;;;;;;;;33.90;65.60;;;;;;5110069;28;19919;-71
2023/06/14 07:59:41;;;;;;;;;;;34.00;65.80;;;;;;5108307;28;20437;-71
2023/06/14 08:02:07;;;;;;;;;;;34.30;65.80;;;;;;5109537;28;20014;-71
2023/06/14 08:04:33;;;;;;;;;;;34.50;65.60;;;;;;5108332;28;20003;-70
2023/06/14 08:06:59;;;;;;;;;;;34.70;65.60;;;;;;5108241;28;19908;-71
2023/06/14 08:09:25;;;;;;;;;;;35.00;66.00;;;;;;5109893;28;19926;-71
2023/06/14 08:11:50;;;;;;;;;;;35.20;66.10;;;;;;5109613;28;19994;-71
2023/06/14 08:14:16;;;;;;;;;;;35.30;66.10;;;;;;5109793;28;20299;-71
2023/06/14 08:16:42;;;;;;;;;;;35.30;66.10;;;;;;5109624;28;20035;-71
2023/06/14 08:19:07;;;;;;;;;;;35.30;66.00;;;;;;5107846;28;19912;-71
2023/06/14 08:21:33;;;;;;;;;;;35.40;66.30;;;;;;5108262;28;19908;-71
2023/06/14 08:23:59;;;;;;;;;;;35.60;66.30;;;;;;5109587;28;20017;-71
2023/06/14 08:26:28;;;;;;;;;;;35.50;66.30;;;;;;5109751;28;19947;-71
2023/06/14 08:28:54;;;;;;;;;;;35.40;66.50;;;;;;5109609;28;19943;-71
2023/06/14 08:31:20;;;;;;;;;;;35.30;67.00;;;;;;5109171;28;19915;-71
2023/06/14 08:33:46;;;;;;;;;;;35.40;67.20;;;;;;5108405;28;20059;-71
2023/06/14 08:36:12;;;;;;;;;;;35.60;67.30;;;;;;5097271;28;20276;-71
2023/06/14 08:38:38;;;;;;;;;;;35.60;67.40;;;;;;5098840;28;19909;-72
2023/06/14 08:41:05;;;;;;;;;;;35.70;67.10;;;;;;5099530;27;19970;-71
2023/06/14 08:43:31;;;;;;;;;;;35.70;67.40;;;;;;5097451;28;19958;-71
2023/06/14 08:46:03;;;;;;;;;;;35.70;67.40;;;;;;5098862;28;19962;-72
2023/06/14 08:48:32;;;;;;;;;;;35.70;67.30;;;;;;5098781;28;19919;-71
2023/06/14 08:51:01;;;;;;;;;;;35.80;67.30;;;;;;5097667;28;19915;-72
2023/06/14 08:53:31;;;;;;;;;;;35.70;67.70;;;;;;5091763;28;20261;-71
2023/06/14 08:56:00;;;;;;;;;;;35.40;67.80;;;;;;5088286;28;20294;-71
2023/06/14 08:58:25;;;;;;;;;;;35.20;68.30;;;;;;5088166;28;20399;-71
2023/06/14 09:00:52;;;;;;;;;;;35.40;69.10;;;;;;5088419;28;19912;-71
2023/06/14 09:03:20;;;;;;;;;;;35.90;68.90;;;;;;5087896;28;20439;-71
2023/06/14 09:05:46;;;;;;;;;;;36.10;68.30;;;;;;5088541;28;19908;-71
2023/06/14 09:08:12;;;;;;;;;;;36.20;68.30;;;;;;5087888;28;19923;-72
2023/06/14 09:10:39;;;;;;;;;;;36.30;68.30;;;;;;5087813;28;20292;-71
2023/06/14 09:13:05;;;;;;;;;;;36.40;68.50;;;;;;5087943;28;20068;-72
2023/06/14 09:15:31;;;;;;;;;;;36.30;68.50;;;;;;5088022;28;19912;-71
2023/06/14 09:17:57;;;;;;;;;;;35.90;68.70;;;;;;5088244;28;19939;-71
2023/06/14 09:20:23;;;;;;;;;;;35.70;69.40;;;;;;5088513;28;20004;-71
2023/06/14 09:22:49;;;;;;;;;;;35.60;69.60;;;;;;5085330;28;19960;-71
2023/06/14 09:25:15;;;;;;;;;;;35.70;69.80;;;;;;5086708;28;20342;-71
2023/06/14 09:27:41;;;;;;;;;;;35.40;69.30;;;;;;5088487;28;19916;-72
2023/06/14 09:30:09;;;;;;;;;;;35.00;69.70;;;;;;5087218;28;19912;-72
2023/06/14 09:32:39;;;;;;;;;;;34.70;70.10;;;;;;5087989;28;19916;-70
2023/06/14 09:35:06;;;;;;;;;;;34.80;70.60;;;;;;5088404;28;19937;-71
2023/06/14 09:37:33;;;;;;;;;;;35.30;70.60;;;;;;5087209;28;19919;-71
2023/06/14 09:39:58;;;;;;;;;;;35.70;70.20;;;;;;5088366;28;20003;-71
2023/06/14 09:42:28;;;;;;;;;;;35.90;70.00;;;;;;5088281;28;20334;-71
2023/06/14 09:44:54;;;;;;;;;;;36.20;69.80;;;;;;5088448;28;19912;-70
2023/06/14 09:47:20;;;;;;;;;;;36.30;69.10;;;;;;5088666;28;20010;-70
2023/06/14 09:49:46;;;;;;;;;;;36.10;69.30;;;;;;5095351;28;19962;-71
2023/06/14 09:52:14;;;;;;;;;;;36.10;69.60;;;;;;5099918;28;19939;-71
2023/06/14 09:54:43;;;;;;;;;;;36.20;69.80;;;;;;5108553;28;19911;-71
2023/06/14 09:57:13;;;;;;;;;;;36.30;69.60;;;;;;5108880;28;19960;-72
2023/06/14 09:59:41;;;;;;;;;;;36.20;69.50;;;;;;5108773;28;20279;-70
2023/06/14 10:02:10;;;;;;;;;;;35.70;69.40;;;;;;5108254;28;19915;-70
2023/06/14 10:04:36;;;;;;;;;;;35.00;69.80;;;;;;5108154;28;19939;-71
2023/06/14 10:07:03;;;;;;;;;;;34.70;70.60;;;;;;5107453;28;19958;-69
2023/06/14 10:09:29;;;;;;;;;;;34.90;70.50;;;;;;5107362;28;19912;-70
2023/06/14 10:11:56;;;;;;;;;;;35.20;70.30;;;;;;5108463;28;19919;-73
2023/06/14 10:14:21;;;;;;;;;;;35.50;69.90;;;;;;5108611;28;20018;-72
2023/06/14 10:16:47;;;;;;;;;;;35.70;69.60;;;;;;5106549;28;20423;-70
2023/06/14 10:19:34;;;;;;;;;;;35.80;69.40;;;;;;5108405;28;19912;-70
2023/06/14 10:22:02;;;;;;;;;;;36.10;69.40;;;;;;5109424;28;19911;-77
2023/06/14 10:24:33;;;;;;;;;;;36.50;69.10;;;;;;5109274;28;19957;-78
2023/06/14 10:27:02;;;;;;;;;;;36.50;68.50;;;;;;5109346;28;20252;-79
2023/06/14 10:29:32;;;;;;;;;;;36.00;68.50;;;;;;5110185;28;19960;-79
2023/06/14 10:31:58;;;;;;;;;;;35.70;69.40;;;;;;5109416;28;19911;-77
2023/06/14 10:34:28;;;;;;;;;;;35.40;69.50;;;;;;5108936;28;19919;-76
2023/06/14 10:37:03;;;;;;;;;;;35.50;70.00;;;;;;5108632;28;20037;-71
2023/06/14 10:39:29;;;;;;;;;;;35.90;69.90;;;;;;5108459;28;19976;-72
2023/06/14 10:41:56;;;;;;;;;;;36.10;69.30;;;;;;5110732;28;19908;-73
2023/06/14 10:44:21;;;;;;;;;;;36.10;68.90;;;;;;5110993;28;19977;-72
2023/06/14 10:46:48;;;;;;;;;;;36.10;68.70;;;;;;5112469;28;19915;-71
2023/06/14 10:49:18;;;;;;;;;;;36.00;68.80;;;;;;5112246;28;20034;-71
2023/06/14 10:51:47;;;;;;;;;;;36.10;68.60;;;;;;5111941;28;19916;-72
2023/06/14 10:54:16;;;;;;;;;;;35.90;68.40;;;;;;5112269;28;19908;-72
2023/06/14 10:56:49;;;;;;;;;;;35.60;69.10;;;;;;5111004;28;19961;-71
2023/06/14 10:59:15;;;;;;;;;;;35.60;69.30;;;;;;5112018;28;20344;-71
2023/06/14 11:01:45;;;;;;;;;;;35.80;69.10;;;;;;5112019;28;19922;-73
2023/06/14 11:04:11;;;;;;;;;;;36.00;68.50;;;;;;5112048;28;19903;-72
2023/06/14 11:06:47;;;;;;;;;;;35.80;68.50;;;;;;5110126;28;19916;-72
2023/06/14 11:09:25;;;;;;;;;;;36.00;68.70;;;;;;5108793;28;20015;-73
2023/06/14 11:11:51;;;;;;;;;;;36.10;69.00;;;;;;5096112;28;19934;-71
2023/06/14 11:14:17;;;;;;;;;;;36.30;68.90;;;;;;5100349;28;19920;-73
2023/06/14 11:16:47;;;;;;;;;;;35.90;69.20;;;;;;5107009;28;20431;-73
2023/06/14 11:19:13;;;;;;;;;;;35.80;69.40;;;;;;5110321;27;19912;-73
2023/06/14 11:21:40;;;;;;;;;;;35.50;69.60;;;;;;5110205;28;20006;-74
2023/06/14 11:24:09;;;;;;;;;;;35.60;69.80;;;;;;5111632;28;19961;-73
2023/06/14 11:26:37;;;;;;;;;;;35.60;69.20;;;;;;5111654;28;19914;-72
2023/06/14 11:29:03;;;;;;;;;;;35.10;69.20;;;;;;5111841;27;19935;-72
2023/06/14 11:31:28;;;;;;;;;;;35.00;69.60;;;;;;5109911;28;19987;-73
2023/06/14 11:33:56;;;;;;;;;;;35.10;69.40;;;;;;5111102;28;19943;-73
2023/06/14 11:36:22;;;;;;;;;;;35.20;69.30;;;;;;5111126;28;19961;-72
2023/06/14 11:38:47;;;;;;;;;;;35.40;69.20;;;;;;5111170;28;19940;-72
2023/06/14 11:41:13;;;;;;;;;;;35.50;69.20;;;;;;5110190;28;19939;-72
2023/06/14 11:43:40;;;;;;;;;;;35.60;69.20;;;;;;5109186;28;19912;-71
2023/06/14 11:46:12;;;;;;;;;;;35.60;68.80;;;;;;5111348;28;19915;-72
2023/06/14 11:48:45;;;;;;;;;;;35.40;68.70;;;;;;5111001;28;20049;-72
2023/06/14 11:51:11;;;;;;;;;;;35.20;68.80;;;;;;5111291;28;19916;-73
2023/06/14 11:53:36;;;;;;;;;;;35.10;69.00;;;;;;5110139;28;19919;-79
2023/06/14 11:56:02;;;;;;;;;;;35.10;68.80;;;;;;5111300;28;20026;-73
2023/06/14 11:58:29;;;;;;;;;;;35.20;68.80;;;;;;5111106;27;20380;-73
2023/06/14 12:00:55;;;;;;;;;;;34.90;68.80;;;;;;5110743;28;19947;-74
2023/06/14 12:03:25;;;;;;;;;;;34.60;69.30;;;;;;5110826;28;19924;-73
2023/06/14 12:06:01;;;;;;;;;;;34.70;69.60;;;;;;5111048;28;19919;-77
2023/06/14 12:08:37;;;;;;;;;;;35.00;69.70;;;;;;5109680;28;19911;-72
2023/06/14 12:11:03;;;;;;;;;;;34.80;69.20;;;;;;5110903;28;19945;-73
2023/06/14 12:13:28;;;;;;;;;;;34.40;69.10;;;;;;5109430;28;19963;-73
2023/06/14 12:15:55;;;;;;;;;;;34.10;69.80;;;;;;5109710;28;19954;-74
2023/06/14 12:18:31;;;;;;;;;;;34.10;70.00;;;;;;5110686;28;19912;-74
2023/06/14 12:21:02;;;;;;;;;;;33.90;69.90;;;;;;5110385;28;20282;-73
2023/06/14 12:23:38;;;;;;;;;;;33.90;70.40;;;;;;5110808;28;19908;-74
2023/06/14 12:26:04;;;;;;;;;;;34.10;70.40;;;;;;5109525;28;19908;-74
2023/06/14 12:28:31;;;;;;;;;;;34.60;70.10;;;;;;5110581;28;19911;-73
2023/06/14 12:30:58;;;;;;;;;;;34.60;69.60;;;;;;5110419;28;19918;-73
2023/06/14 12:33:24;;;;;;;;;;;34.20;69.90;;;;;;5110201;28;19960;-72
2023/06/14 12:35:50;;;;;;;;;;;33.80;70.10;;;;;;5109880;28;19924;-71
2023/06/14 12:38:16;;;;;;;;;;;33.80;70.60;;;;;;5096806;28;20282;-75
2023/06/14 12:40:42;;;;;;;;;;;34.10;70.30;;;;;;5097409;27;19907;-73
2023/06/14 12:43:07;;;;;;;;;;;34.50;70.10;;;;;;5097864;28;19918;-74
2023/06/14 12:45:33;;;;;;;;;;;34.50;69.40;;;;;;5100751;28;19916;-73
2023/06/14 12:47:59;;;;;;;;;;;34.20;69.60;;;;;;5098048;28;19916;-73
2023/06/14 12:50:25;;;;;;;;;;;34.10;69.50;;;;;;5098937;28;19933;-74
2023/06/14 12:52:50;;;;;;;;;;;33.80;69.70;;;;;;5097236;28;19987;-75
2023/06/14 12:55:16;;;;;;;;;;;33.70;69.90;;;;;;5097796;28;19965;-73
2023/06/14 12:57:41;;;;;;;;;;;33.30;70.00;;;;;;5097457;28;20395;-73
2023/06/14 13:00:07;;;;;;;;;;;33.10;70.40;;;;;;5097376;28;19908;-73
2023/06/14 13:02:33;;;;;;;;;;;32.90;70.00;;;;;;5100055;28;19928;-74
2023/06/14 13:05:00;;;;;;;;;;;32.60;70.00;;;;;;5099126;28;19924;-72
2023/06/14 13:07:25;;;;;;;;;;;32.30;70.20;;;;;;5102999;28;19958;-71
2023/06/14 13:09:51;;;;;;;;;;;32.20;70.20;;;;;;5100684;28;19916;-72
2023/06/14 13:12:17;;;;;;;;;;;32.20;69.80;;;;;;5098047;28;19912;-73
2023/06/14 13:14:42;;;;;;;;;;;32.10;69.50;;;;;;5099237;28;19912;-73
2023/06/14 13:17:08;;;;;;;;;;;31.70;69.30;;;;;;5100234;28;19916;-74
2023/06/14 13:19:34;;;;;;;;;;;31.20;68.90;;;;;;5100297;28;19928;-72
2023/06/14 13:22:00;;;;;;;;;;;30.60;68.90;;;;;;5097374;28;19911;-74
2023/06/14 13:24:26;;;;;;;;;;;30.30;68.70;;;;;;5096479;28;20375;-73
2023/06/14 13:26:52;;;;;;;;;;;29.80;68.50;;;;;;5095242;28;20450;-72
2023/06/14 13:29:17;;;;;;;;;;;29.60;68.70;;;;;;5097618;28;20280;-70
2023/06/14 13:31:43;;;;;;;;;;;29.50;68.40;;;;;;5099028;28;19914;-73
2023/06/14 13:34:08;;;;;;;;;;;29.30;68.10;;;;;;5096862;28;19916;-73
2023/06/14 13:36:34;;;;;;;;;;;29.10;68.10;;;;;;5097498;28;19971;-73
2023/06/14 13:39:00;;;;;;;;;;;28.90;68.10;;;;;;5088941;28;20520;-73
2023/06/14 13:41:31;;;;;;;;;;;28.70;67.60;;;;;;5088590;28;19918;-73
2023/06/14 13:43:57;;;;;;;;;;;28.40;67.70;;;;;;5089125;28;19992;-74
2023/06/14 13:46:23;;;;;;;;;;;28.30;67.50;;;;;;5088707;28;19912;-74
2023/06/14 13:48:48;;;;;;;;;;;28.30;67.50;;;;;;5088741;28;19912;-74
2023/06/14 13:51:14;;;;;;;;;;;28.00;67.20;;;;;;5088887;28;20035;-73
2023/06/14 13:53:39;;;;;;;;;;;27.80;67.40;;;;;;5089076;28;19922;-73
2023/06/14 13:56:05;;;;;;;;;;;27.50;67.30;;;;;;5088790;28;19957;-73
2023/06/14 13:58:30;;;;;;;;;;;27.40;67.30;;;;;;5088047;28;19940;-73
2023/06/14 14:00:56;;;;;;;;;;;27.20;67.20;;;;;;5087426;28;19912;-73
2023/06/14 14:03:22;;;;;;;;;;;27.00;67.20;;;;;;5086909;28;20276;-73
2023/06/14 14:05:47;;;;;;;;;;;26.90;67.40;;;;;;5087794;28;19913;-73
2023/06/14 14:08:13;;;;;;;;;;;26.90;67.30;;;;;;5088826;28;19923;-76
2023/06/14 14:10:39;;;;;;;;;;;26.90;67.10;;;;;;5089344;28;19908;-75
2023/06/14 14:13:04;;;;;;;;;;;26.90;67.00;;;;;;5088840;28;19923;-71